Airfield :
LOGIN :

Register | Disclaimer

   EN    FR    IT 

 










Legend :    VFR   Marginal VFR   IFR   Intensive IFR   Very Intensive IFR
Visi :
Ceiling :
>= 8 km
>= 3000ft
5 to 8 km
1000 to 3000 ft
1500m to 5 km
500 to 1000 ft
800 to 1500m
200 to 500 ft
< 800m
< 200 ft
Symbols :   Thunderstorms  Fog  Heavy snow  Heavy precipitations  Wind > 20 kt
SIGMETs :     Misc.  Thunderstorms  Icing  Turbulence  Mountain Waves  Volcanic Ashes






- Airport Elevation : 1115 ft
- IATA code : GRZ


LOWG - Graz

CURRENT METAR :
  • 010320Z AUTO VRB01KT 9999 NCD M04/M05 Q1031

EXPIRED METARs :
  • 010250Z AUTO VRB01KT 9999 NCD M03/M05 Q1031
  • 010220Z AUTO VRB01KT 9999 NCD M03/M05 Q1031
  • 010150Z AUTO VRB01KT 9999 NCD M03/M05 Q1031
  • 010120Z AUTO VRB01KT 9999 NCD M02/M04 Q1031
  • 010050Z AUTO VRB01KT 9999 NCD M03/M05 Q1032
  • 010020Z AUTO 14002KT 9999 NCD M03/M05 Q1032

TAF TAF LOWG
Valid from the 01 at 00:00 until the 02 at 00:00 UTC


282315Z 0100/0124 VRB04KT CAVOK TX11/0114Z TNM04/0105Z
PROB30
TEMPO 0103/0107 1400 MIFG NSC
TEMPO 0111/0115 12008KT



MET'MAP, your aeronautical weather chart ! - Copyright ORBIFLY December 2007 - Disclaimer

ORBIFLY MET'MAP TEAM :

Programming & Development : Alexandra Zaïnal
Concept & original design : Baudouin d'Aumeries
Assistance for programming : Marc-Olivier Méhu
Technical & hardware support : Manuel Goepfert

Contact : metmap@orbifly.com




SOURCES & CREDITS :

   NOAA